Flight Track Log - Related Links

Times and Time Zones

All times are in EDT time to prevent confusion due to time zone crossing. See the SWA728 flight status page for this flight to view local times or setup timezone preferences in your user account.

Time Position Orientation Groundspeed Altitude Reporting Facility
EDT Latitude Longitude Course Direction KTS MPH feet Rate Location/Type
Sat 10:52:45 AM 37.4000 -121.9833 133° Southeast 199 229 2,300  Level Northern Cal TRACON
Sat 10:53:51 AM 37.4333 -121.9333 50° Northeast 229 264 4,900 1,286 Climbing Northern Cal TRACON
Sat 10:54:51 AM 37.4000 -121.8667 122° Southeast 226 260 5,000 1,128 Climbing Northern Cal TRACON
Sat 10:56:04 AM 37.3483 -121.8044 136° Southeast 232 267 7,400 2,104 Climbing Oakland Center
Sat 10:57:05 AM 37.2914 -121.7453 140° Southeast 263 303 9,700 2,213 Climbing Oakland Center
Sat 10:58:00 AM 36.9120 -121.4341 133° Southeast  Level Estimated
Sat 10:58:06 AM 37.2258 -121.6694 137° Southeast 312 359 11,900  Level Oakland Center
Sat 10:59:07 AM 37.1525 -121.5872 138° Southeast 350 403 14,300 2,607 Climbing Oakland Center
Sat 11:00:08 AM 37.0678 -121.4922 138° Southeast 369 425 17,200 2,607 Climbing Oakland Center
Sat 11:01:09 AM 36.9853 -121.4042 140° Southeast 388 447 19,600 2,262 Climbing Oakland Center
Sat 11:02:10 AM 36.9025 -121.3128 139° Southeast 396 456 21,800 2,016 Climbing Oakland Center
Sat 11:03:11 AM 36.8175 -121.2228 140° Southeast 412 474 23,700 1,820 Climbing Oakland Center
Sat 11:04:12 AM 36.7297 -121.1317 140° Southeast 412 474 25,500 1,475 Climbing Oakland Center
Sat 11:05:13 AM 36.6372 -121.0328 139° Southeast 431 496 26,700 1,525 Climbing Oakland Center
Sat 11:06:14 AM 36.5250 -120.9114 139° Southeast 442 509 28,600 1,475 Climbing Oakland Center
Sat 11:07:15 AM 36.4297 -120.8069 139° Southeast 453 521 29,700 1,306 Climbing Oakland Center
Sat 11:08:18 AM 36.3339 -120.6997 138° Southeast 461 531 31,300 1,475 Climbing Oakland Center
Sat 11:09:17 AM 36.2353 -120.5997 141° Southeast 457 526 32,700 1,300 Climbing Oakland Center
Sat 11:10:18 AM 36.1386 -120.4964 139° Southeast 457 526 33,900 1,230 Climbing Oakland Center
Sat 11:11:19 AM 36.0417 -120.3897 138° Southeast 464 534 35,200 1,082 Climbing Oakland Center
Sat 11:12:20 AM 35.9469 -120.2947 141° Southeast 437 503 36,100 836 Climbing Oakland Center
Sat 11:13:21 AM 35.8508 -120.1939 140° Southeast 448 516 36,900 443 Climbing Oakland Center
Sat 11:14:22 AM 35.7578 -120.0961 140° Southeast 440 506 37,000 49 Climbing Oakland Center
Sat 11:15:24 AM 35.6636 -119.9969 139° Southeast 439 505 37,000  Level Oakland Center
Sat 11:16:25 AM 35.5600 -119.9039 144° Southeast 458 527 37,000 -49 Level Oakland Center
Sat 11:17:26 AM 35.4572 -119.8161 145° Southeast 448 516 36,900  Descending Oakland Center
Sat 11:18:27 AM 35.3553 -119.7269 144° Southeast 447 514 37,000 49 Climbing Oakland Center
Sat 11:19:28 AM 35.2542 -119.6403 145° Southeast 443 510 37,000  Level Oakland Center
Sat 11:20:29 AM 35.1528 -119.5539 145° Southeast 443 510 37,000  Level Oakland Center
Sat 11:21:40 AM 35.0333 -119.4511 145° Southeast 440 506 37,000  Level Los Angeles Center
Sat 11:22:42 AM 34.9342 -119.3664 145° Southeast 436 502 37,000  Level Los Angeles Center
Sat 11:23:43 AM 34.8142 -119.2644 145° Southeast 438 504 37,000  Level Los Angeles Center
Sat 11:24:45 AM 34.7139 -119.1817 146° Southeast 437 503 37,000  Level Los Angeles Center
Sat 11:25:47 AM 34.6167 -119.1011 146° Southeast 439 505 37,000  Level Los Angeles Center
Sat 11:26:49 AM 34.5156 -119.0139 145° Southeast 444 511 37,000  Level Los Angeles Center
Sat 11:27:50 AM 34.4133 -118.9289 146° Southeast 447 514 37,000  Level Los Angeles Center
Sat 11:28:52 AM 34.2967 -118.8203 142° Southeast 443 510 37,000  Level Los Angeles Center
Sat 11:29:54 AM 34.2061 -118.7211 138° Southeast 441 507 37,000  Level Los Angeles Center
Sat 11:30:56 AM 34.1156 -118.6253 139° Southeast 437 503 37,000 -339 Level Los Angeles Center
Sat 11:31:58 AM 34.0242 -118.5283 139° Southeast 436 502 36,300 -878 Descending Los Angeles Center
Sat 11:32:59 AM 33.9325 -118.4308 139° Southeast 438 504 35,200 -976 Descending Los Angeles Center
Sat 11:34:01 AM 33.8419 -118.3156 133° Southeast 457 526 34,300 -919 Descending Los Angeles Center
Sat 11:35:03 AM 33.7547 -118.2081 134° Southeast 453 521 33,300 -1,984 Descending Los Angeles Center
Sat 11:36:05 AM 33.6686 -118.0931 132° Southeast 452 520 30,200 -3,073 Descending Los Angeles Center
Sat 11:37:06 AM 33.5803 -117.9822 134° Southeast 459 528 27,000 -2,829 Descending Los Angeles Center
Sat 11:38:08 AM 33.4919 -117.8717 134° Southeast 457 526 24,400 -2,642 Descending Los Angeles Center
Sat 11:38:55 AM 33.4167 -117.7667 131° Southeast 430 495 22,200 -2,549 Descending Southern California TRACON
Sat 11:40:01 AM 33.3167 -117.6500 136° Southeast 412 474 19,600 -2,286 Descending Southern California TRACON
Sat 11:41:01 AM 33.2500 -117.5667 134° Southeast 395 455 17,400 -2,150 Descending Southern California TRACON
Sat 11:42:01 AM 33.1667 -117.4833 140° Southeast 381 438 15,300 -2,000 Descending Southern California TRACON
Sat 11:42:55 AM 33.0833 -117.4333 153° Southeast 354 407 13,600 -1,658 Descending Southern California TRACON
Sat 11:43:17 AM 33.0700 -117.4158 132° Southeast 362 417 13,200 -1,900 Descending Los Angeles Center
Sat 11:43:55 AM 33.0167 -117.3667 142° Southeast 341 392 11,700 -1,558 Descending Southern California TRACON
Sat 11:45:01 AM 32.9333 -117.3000 146° Southeast 314 361 10,500 -1,095 Descending Southern California TRACON
Sat 11:46:01 AM 32.8667 -117.2500 148° Southeast 287 330 9,400 -1,185 Descending Southern California TRACON
Sat 11:46:22 AM 32.8400 -117.2303 148° Southeast 289 333 8,900 -1,390 Descending Los Angeles Center
Sat 11:47:23 AM 32.8033 -117.1544 120° Southeast 278 320 7,500 -1,484 Descending Los Angeles Center
Sat 11:47:55 AM 32.7833 -117.1000 114° Southeast 275 316 6,600 -1,290 Descending Southern California TRACON
Sat 11:48:56 AM 32.7667 -117.0167 103° East 268 308 5,500 -835 Descending Southern California TRACON
Sat 11:49:50 AM 32.7500 -116.9500 107° East 235 270 5,000 -650 Descending Southern California TRACON
Sat 11:50:56 AM 32.7167 -116.9000 128° Southeast 211 243 4,200 -571 Descending Southern California TRACON
Sat 11:51:56 AM 32.6833 -116.9500 232° Southwest 188 216 3,800 -450 Descending Southern California TRACON
Sat 11:52:56 AM 32.6833 -117.0000 270° West 186 214 3,300 -700 Descending Southern California TRACON
Sat 11:53:56 AM 32.7000 -117.0667 287° West 173 199 2,400 -952 Descending Southern California TRACON
Sat 11:55:02 AM 32.7167 -117.1167 292° West 146 168 1,300 -772 Descending Southern California TRACON
Sat 11:55:37 AM 32.7186 -117.1256 285° West 159 183 1,100 -619 Descending Los Angeles Center
Sat 11:56:39 AM 32.7306 -117.1817 284° West 141 162 300 -774 Descending Los Angeles Center

Login

Don't have an account? Register now (free) for customized features, flight alerts, and more!